Time;durP1;ratioP1;P1;durP2;ratioP2;P2;SDS_P1;SDS_P2;PMS_P1;PMS_P2;Temp;Humidity;BMP_temperature;BMP_pressure;BME280_temperature;BME280_humidity;BME280_pressure;Samples;Min_cycle;Max_cycle;Signal;HPM_P1;HPM_P2
2022/10/07 00:01:57;;;;;;;0.00;0.00;;;;;;;;;;5074600;28;20079;-85
2022/10/07 00:04:23;;;;;;;0.00;0.00;;;;;;;;;;5057617;28;20511;-86
2022/10/07 00:06:49;;;;;;;0.00;0.00;;;;;;;;;;5074231;28;20040;-84
2022/10/07 00:09:15;;;;;;;0.00;0.00;;;;;;;;;;5074261;28;20193;-85
2022/10/07 00:11:41;;;;;;;0.00;0.00;;;;;;;;;;5074185;28;20490;-85
2022/10/07 00:14:07;;;;;;;0.00;0.00;;;;;;;;;;5073991;28;20052;-85
2022/10/07 00:16:35;;;;;;;0.00;0.00;;;;;;;;;;5073951;28;20044;-86
2022/10/07 00:19:03;;;;;;;0.00;0.00;;;;;;;;;;5073750;28;20072;-86
2022/10/07 00:21:31;;;;;;;0.00;0.00;;;;;;;;;;5074033;28;20041;-86
2022/10/07 00:23:58;;;;;;;0.00;0.00;;;;;;;;;;5073744;28;20033;-85
2022/10/07 00:26:25;;;;;;;0.00;0.00;;;;;;;;;;5073870;28;20138;-85
2022/10/07 00:28:51;;;;;;;0.00;0.00;;;;;;;;;;5073863;28;20230;-85
2022/10/07 00:31:18;;;;;;;0.00;0.00;;;;;;;;;;5073771;28;20037;-85
2022/10/07 00:33:45;;;;;;;0.00;0.00;;;;;;;;;;5073416;28;20044;-85
2022/10/07 00:36:22;;;;;;;0.00;0.00;;;;;;;;;;5073528;28;20526;-85
2022/10/07 00:38:55;;;;;;;0.00;0.00;;;;;;;;;;5073488;28;20483;-85
2022/10/07 00:41:24;;;;;;;0.00;0.00;;;;;;;;;;5057196;28;20460;-86
2022/10/07 00:43:50;;;;;;;0.00;0.00;;;;;;;;;;5073346;28;20147;-85
2022/10/07 00:46:23;;;;;;;0.00;0.00;;;;;;;;;;5056933;28;20041;-86
2022/10/07 00:48:49;;;;;;;0.00;0.00;;;;;;;;;;5073275;28;20040;-85
2022/10/07 00:51:15;;;;;;;0.00;0.00;;;;;;;;;;5056969;28;20044;-85
2022/10/07 00:53:43;;;;;;;0.00;0.00;;;;;;;;;;5073010;28;20044;-86
2022/10/07 00:56:09;;;;;;;0.00;0.00;;;;;;;;;;5073364;28;20170;-86
2022/10/07 00:58:36;;;;;;;0.00;0.00;;;;;;;;;;5073087;28;20120;-87
2022/10/07 01:01:03;;;;;;;0.00;0.00;;;;;;;;;;5073214;28;20058;-86
2022/10/07 01:03:29;;;;;;;0.00;0.00;;;;;;;;;;5073062;28;20156;-87
2022/10/07 01:05:55;;;;;;;0.00;0.00;;;;;;;;;;5056132;28;20040;-86
2022/10/07 01:08:22;;;;;;;0.00;0.00;;;;;;;;;;5073135;28;20040;-86
2022/10/07 01:10:54;;;;;;;0.00;0.00;;;;;;;;;;5072834;28;20044;-86
2022/10/07 01:13:30;;;;;;;0.00;0.00;;;;;;;;;;5072782;28;20095;-87
2022/10/07 01:16:02;;;;;;;0.00;0.00;;;;;;;;;;5055940;28;20051;-86
2022/10/07 01:18:41;;;;;;;0.00;0.00;;;;;;;;;;5072668;28;20040;-87
2022/10/07 01:21:14;;;;;;;0.00;0.00;;;;;;;;;;5056310;28;20126;-86
2022/10/07 01:23:59;;;;;;;0.00;0.00;;;;;;;;;;5056161;28;20033;-87
2022/10/07 01:26:38;;;;;;;0.00;0.00;;;;;;;;;;5056024;28;20036;-86
2022/10/07 01:29:07;;;;;;;0.00;0.00;;;;;;;;;;5055943;28;20049;-86
2022/10/07 01:31:36;;;;;;;0.00;0.00;;;;;;;;;;5072620;28;20531;-85
2022/10/07 01:34:07;;;;;;;0.00;0.00;;;;;;;;;;5072312;28;20373;-86
2022/10/07 01:36:35;;;;;;;0.00;0.00;;;;;;;;;;5055679;28;20488;-86
2022/10/07 01:39:03;;;;;;;0.00;0.00;;;;;;;;;;5055659;28;20387;-85
2022/10/07 01:41:30;;;;;;;0.00;0.00;;;;;;;;;;5072563;28;20036;-84
2022/10/07 01:43:58;;;;;;;0.00;0.00;;;;;;;;;;5055993;28;20047;-85
2022/10/07 01:46:25;;;;;;;0.00;0.00;;;;;;;;;;5055597;28;20045;-85
2022/10/07 01:48:51;;;;;;;0.00;0.00;;;;;;;;;;5055586;28;20040;-85
2022/10/07 01:51:20;;;;;;;0.00;0.00;;;;;;;;;;5055524;28;20047;-85
2022/10/07 01:54:05;;;;;;;0.00;0.00;;;;;;;;;;5055514;28;20044;-84
2022/10/07 01:56:36;;;;;;;0.00;0.00;;;;;;;;;;5072100;28;20385;-85
2022/10/07 01:59:21;;;;;;;0.00;0.00;;;;;;;;;;5072132;28;20083;-85
2022/10/07 02:02:07;;;;;;;0.00;0.00;;;;;;;;;;5072068;28;20491;-85
2022/10/07 02:04:40;;;;;;;0.00;0.00;;;;;;;;;;5067196;28;20048;-85
2022/10/07 02:07:24;;;;;;;0.00;0.00;;;;;;;;;;5072253;28;20435;-85
2022/10/07 02:09:56;;;;;;;0.00;0.00;;;;;;;;;;5055225;28;20037;-85
2022/10/07 02:12:31;;;;;;;0.00;0.00;;;;;;;;;;5054968;28;20097;-85
2022/10/07 02:15:16;;;;;;;0.00;0.00;;;;;;;;;;5054973;28;20045;-86
2022/10/07 02:17:45;;;;;;;0.00;0.00;;;;;;;;;;5071710;28;20036;-86
2022/10/07 02:20:12;;;;;;;0.00;0.00;;;;;;;;;;5071703;28;20044;-86
2022/10/07 02:22:39;;;;;;;0.00;0.00;;;;;;;;;;5071596;28;20033;-86
2022/10/07 02:25:05;;;;;;;0.00;0.00;;;;;;;;;;5071654;28;20037;-85
2022/10/07 02:27:34;;;;;;;0.00;0.00;;;;;;;;;;5071706;28;20395;-85
2022/10/07 02:30:03;;;;;;;0.00;0.00;;;;;;;;;;5053992;28;20047;-85
2022/10/07 02:32:30;;;;;;;0.00;0.00;;;;;;;;;;5071500;28;20124;-86
2022/10/07 02:35:04;;;;;;;0.00;0.00;;;;;;;;;;5071398;28;20048;-85
2022/10/07 02:37:32;;;;;;;0.00;0.00;;;;;;;;;;5071569;28;20086;-86
2022/10/07 02:39:58;;;;;;;0.00;0.00;;;;;;;;;;5071381;28;20089;-86
2022/10/07 02:42:24;;;;;;;0.00;0.00;;;;;;;;;;5071604;28;20037;-86
2022/10/07 02:44:53;;;;;;;0.00;0.00;;;;;;;;;;5071420;28;20044;-86
2022/10/07 02:47:28;;;;;;;0.00;0.00;;;;;;;;;;5071440;28;20051;-85
2022/10/07 02:49:59;;;;;;;0.00;0.00;;;;;;;;;;5071263;28;20052;-85
2022/10/07 02:52:27;;;;;;;0.00;0.00;;;;;;;;;;5071547;28;20052;-85
2022/10/07 02:54:57;;;;;;;0.00;0.00;;;;;;;;;;5054492;28;20040;-85
2022/10/07 02:57:25;;;;;;;0.00;0.00;;;;;;;;;;5054715;28;20068;-85
2022/10/07 02:59:52;;;;;;;0.00;0.00;;;;;;;;;;5054701;28;20052;-85
2022/10/07 03:02:26;;;;;;;0.00;0.00;;;;;;;;;;5071295;28;20051;-85
2022/10/07 03:04:53;;;;;;;0.00;0.00;;;;;;;;;;5071077;28;20040;-85
2022/10/07 03:07:19;;;;;;;0.00;0.00;;;;;;;;;;5054500;28;20040;-85
2022/10/07 03:09:45;;;;;;;0.00;0.00;;;;;;;;;;5071354;28;20379;-85
2022/10/07 03:12:11;;;;;;;0.00;0.00;;;;;;;;;;5071131;28;20036;-85
2022/10/07 03:14:37;;;;;;;0.00;0.00;;;;;;;;;;5054170;28;20548;-84
2022/10/07 03:17:03;;;;;;;0.00;0.00;;;;;;;;;;5070989;28;20044;-87
2022/10/07 03:19:29;;;;;;;0.00;0.00;;;;;;;;;;5054686;28;20127;-85
2022/10/07 03:21:55;;;;;;;0.00;0.00;;;;;;;;;;5070971;28;20036;-85
2022/10/07 03:24:21;;;;;;;0.00;0.00;;;;;;;;;;5071032;28;20040;-86
2022/10/07 03:26:48;;;;;;;0.00;0.00;;;;;;;;;;5071198;28;20040;-86
2022/10/07 03:29:14;;;;;;;0.00;0.00;;;;;;;;;;5071348;28;20058;-86
2022/10/07 03:31:41;;;;;;;0.00;0.00;;;;;;;;;;5054126;28;20468;-86
2022/10/07 03:34:08;;;;;;;0.00;0.00;;;;;;;;;;5070980;28;20083;-86
2022/10/07 03:36:34;;;;;;;0.00;0.00;;;;;;;;;;5054071;28;20040;-86
2022/10/07 03:39:00;;;;;;;0.00;0.00;;;;;;;;;;5071026;28;20395;-86
2022/10/07 03:41:26;;;;;;;0.00;0.00;;;;;;;;;;5071270;28;20064;-86
2022/10/07 03:43:52;;;;;;;0.00;0.00;;;;;;;;;;5058298;28;20105;-86
2022/10/07 03:46:18;;;;;;;0.00;0.00;;;;;;;;;;5074390;28;20505;-86
2022/10/07 03:48:44;;;;;;;0.00;0.00;;;;;;;;;;5074550;28;20531;-86
2022/10/07 03:51:10;;;;;;;0.00;0.00;;;;;;;;;;5074344;28;20127;-86
2022/10/07 03:53:40;;;;;;;0.00;0.00;;;;;;;;;;5074418;28;20510;-86
2022/10/07 03:56:06;;;;;;;0.00;0.00;;;;;;;;;;5057741;28;20040;-86
2022/10/07 03:58:32;;;;;;;0.00;0.00;;;;;;;;;;5074340;28;20037;-85
2022/10/07 04:01:08;;;;;;;0.00;0.00;;;;;;;;;;5074162;28;20507;-86
2022/10/07 04:03:34;;;;;;;0.00;0.00;;;;;;;;;;5057596;28;20036;-85
2022/10/07 04:06:02;;;;;;;0.00;0.00;;;;;;;;;;5074161;28;20364;-86
2022/10/07 04:08:31;;;;;;;0.00;0.00;;;;;;;;;;5057951;28;20040;-86
2022/10/07 04:10:57;;;;;;;0.00;0.00;;;;;;;;;;5074190;28;20043;-86
2022/10/07 04:13:23;;;;;;;0.00;0.00;;;;;;;;;;5057456;28;20113;-85
2022/10/07 04:15:49;;;;;;;0.00;0.00;;;;;;;;;;5057058;28;20510;-84
2022/10/07 04:18:16;;;;;;;0.00;0.00;;;;;;;;;;5074101;28;20055;-85
2022/10/07 04:20:42;;;;;;;0.00;0.00;;;;;;;;;;5073752;28;20053;-85
2022/10/07 04:23:08;;;;;;;0.00;0.00;;;;;;;;;;5073991;28;20049;-85
2022/10/07 04:25:34;;;;;;;0.00;0.00;;;;;;;;;;5073905;28;20155;-85
2022/10/07 04:28:12;;;;;;;0.00;0.00;;;;;;;;;;5057282;28;20048;-85
2022/10/07 04:30:39;;;;;;;0.00;0.00;;;;;;;;;;5074135;28;20048;-85
2022/10/07 04:33:06;;;;;;;0.00;0.00;;;;;;;;;;5073990;28;20054;-85
2022/10/07 04:35:35;;;;;;;0.00;0.00;;;;;;;;;;5073679;28;20499;-85
2022/10/07 04:38:01;;;;;;;0.00;0.00;;;;;;;;;;5056683;28;20044;-85
2022/10/07 04:40:27;;;;;;;0.00;0.00;;;;;;;;;;5073721;28;20509;-85
2022/10/07 04:45:39;;;;;;;0.00;0.00;;;;;;;;;;5073445;28;20037;-85
2022/10/07 04:48:06;;;;;;;0.00;0.00;;;;;;;;;;5056518;28;20481;-87
2022/10/07 04:50:32;;;;;;;0.00;0.00;;;;;;;;;;5073613;28;20387;-85
2022/10/07 04:52:59;;;;;;;0.00;0.00;;;;;;;;;;5072432;28;20388;-85
2022/10/07 04:55:28;;;;;;;0.00;0.00;;;;;;;;;;5073053;28;20063;-87
2022/10/07 04:57:54;;;;;;;0.00;0.00;;;;;;;;;;5073040;28;20135;-85
2022/10/07 05:00:20;;;;;;;0.00;0.00;;;;;;;;;;5073356;28;20043;-85
2022/10/07 05:02:49;;;;;;;0.00;0.00;;;;;;;;;;5073035;28;20033;-85
2022/10/07 05:05:15;;;;;;;0.00;0.00;;;;;;;;;;5073268;28;20119;-85
2022/10/07 05:07:41;;;;;;;0.00;0.00;;;;;;;;;;5072910;28;20401;-85
2022/10/07 05:10:08;;;;;;;0.00;0.00;;;;;;;;;;5073160;28;20052;-83
2022/10/07 05:12:34;;;;;;;0.00;0.00;;;;;;;;;;5072698;28;20162;-85
2022/10/07 05:15:01;;;;;;;0.00;0.00;;;;;;;;;;5072909;28;20491;-84
2022/10/07 05:17:27;;;;;;;0.00;0.00;;;;;;;;;;5055864;28;20055;-85
2022/10/07 05:19:53;;;;;;;0.00;0.00;;;;;;;;;;5073299;28;20044;-85
2022/10/07 05:22:19;;;;;;;0.00;0.00;;;;;;;;;;5056008;28;20036;-85
2022/10/07 05:24:45;;;;;;;0.00;0.00;;;;;;;;;;5072974;28;20130;-85
2022/10/07 05:27:13;;;;;;;0.00;0.00;;;;;;;;;;5072800;28;20438;-86
2022/10/07 05:29:39;;;;;;;0.00;0.00;;;;;;;;;;5072622;28;20052;-85
2022/10/07 05:32:05;;;;;;;0.00;0.00;;;;;;;;;;5056114;28;20053;-86
2022/10/07 05:34:31;;;;;;;0.00;0.00;;;;;;;;;;5056176;28;20044;-86
2022/10/07 05:36:58;;;;;;;0.00;0.00;;;;;;;;;;5072159;28;20390;-86
2022/10/07 05:39:24;;;;;;;0.00;0.00;;;;;;;;;;5055881;28;20112;-85
2022/10/07 05:41:50;;;;;;;0.00;0.00;;;;;;;;;;5072306;28;20037;-86
2022/10/07 05:44:16;;;;;;;0.00;0.00;;;;;;;;;;5072285;28;20143;-86
2022/10/07 05:46:42;;;;;;;0.00;0.00;;;;;;;;;;5055820;28;20182;-86
2022/10/07 05:49:08;;;;;;;0.00;0.00;;;;;;;;;;5072232;28;20059;-85
2022/10/07 05:51:34;;;;;;;0.00;0.00;;;;;;;;;;5072134;28;20055;-86
2022/10/07 05:54:00;;;;;;;0.00;0.00;;;;;;;;;;5072146;28;20503;-85
2022/10/07 05:56:26;;;;;;;0.00;0.00;;;;;;;;;;5072030;28;20044;-85
2022/10/07 05:58:52;;;;;;;0.00;0.00;;;;;;;;;;5072020;28;20087;-86
2022/10/07 06:01:20;;;;;;;0.00;0.00;;;;;;;;;;5055708;28;20051;-86
2022/10/07 06:03:50;;;;;;;0.00;0.00;;;;;;;;;;5071665;28;20072;-85
2022/10/07 06:06:16;;;;;;;0.00;0.00;;;;;;;;;;5071853;28;20117;-85
2022/10/07 06:08:42;;;;;;;0.00;0.00;;;;;;;;;;5071742;28;20072;-85
2022/10/07 06:13:57;;;;;;;0.00;0.00;;;;;;;;;;5071271;28;20058;-85
2022/10/07 06:16:23;;;;;;;0.00;0.00;;;;;;;;;;5071788;28;20115;-85
2022/10/07 06:18:51;;;;;;;0.00;0.00;;;;;;;;;;5071757;28;20036;-85
2022/10/07 06:21:17;;;;;;;0.70;0.47;;;;;;;;;;5055230;28;20059;-85
2022/10/07 06:23:43;;;;;;;0.00;0.00;;;;;;;;;;5066284;28;20127;-87
2022/10/07 06:26:10;;;;;;;0.00;0.00;;;;;;;;;;5075047;28;20368;-88
2022/10/07 06:28:40;;;;;;;0.00;0.00;;;;;;;;;;5079727;28;20457;-88
2022/10/07 06:31:07;;;;;;;0.05;0.03;;;;;;;;;;5065307;28;20044;-86
2022/10/07 06:33:33;;;;;;;0.00;0.00;;;;;;;;;;5074700;28;20109;-86
2022/10/07 06:36:03;;;;;;;0.00;0.00;;;;;;;;;;5091560;28;20093;-84
2022/10/07 06:38:29;;;;;;;0.00;0.00;;;;;;;;;;5091099;28;20036;-85
2022/10/07 06:41:05;;;;;;;0.00;0.00;;;;;;;;;;5091351;28;20116;-85
2022/10/07 06:43:32;;;;;;;0.00;0.00;;;;;;;;;;5091223;28;20058;-85
2022/10/07 06:46:00;;;;;;;0.00;0.00;;;;;;;;;;5091458;28;20036;-85
2022/10/07 06:48:27;;;;;;;0.00;0.00;;;;;;;;;;5069560;28;20399;-87
2022/10/07 06:50:54;;;;;;;0.00;0.00;;;;;;;;;;5056073;28;20040;-87
2022/10/07 06:53:20;;;;;;;0.00;0.00;;;;;;;;;;5071143;28;20067;-86
2022/10/07 06:55:46;;;;;;;0.00;0.00;;;;;;;;;;5071083;28;20395;-86
2022/10/07 06:58:12;;;;;;;0.00;0.00;;;;;;;;;;5071022;28;20513;-86
2022/10/07 07:00:38;;;;;;;0.00;0.00;;;;;;;;;;5062019;28;20038;-85
2022/10/07 07:03:04;;;;;;;0.00;0.00;;;;;;;;;;5073993;28;20040;-85
2022/10/07 07:05:35;;;;;;;0.00;0.00;;;;;;;;;;5090940;28;20043;-86
2022/10/07 07:08:01;;;;;;;0.00;0.00;;;;;;;;;;5090997;28;20044;-86
2022/10/07 07:10:30;;;;;;;0.00;0.00;;;;;;;;;;5072951;28;20373;-85
2022/10/07 07:12:56;;;;;;;0.00;0.00;;;;;;;;;;5053903;28;20064;-86
2022/10/07 07:15:22;;;;;;;0.00;0.00;;;;;;;;;;5070865;28;20045;-86
2022/10/07 07:17:48;;;;;;;0.00;0.00;;;;;;;;;;5073402;28;20036;-86
2022/10/07 07:20:15;;;;;;;0.00;0.00;;;;;;;;;;5074955;28;20044;-86
2022/10/07 07:22:42;;;;;;;0.00;0.00;;;;;;;;;;5074451;28;20036;-86
2022/10/07 07:25:11;;;;;;;0.00;0.00;;;;;;;;;;5074542;28;20036;-86
2022/10/07 07:27:37;;;;;;;0.00;0.00;;;;;;;;;;5075057;28;20178;-88
2022/10/07 07:30:04;;;;;;;0.00;0.00;;;;;;;;;;5077365;28;20138;-84
2022/10/07 07:32:30;;;;;;;0.00;0.00;;;;;;;;;;5093804;28;20624;-85
2022/10/07 07:34:59;;;;;;;0.00;0.00;;;;;;;;;;5095032;28;20051;-86
2022/10/07 07:37:28;;;;;;;0.00;0.00;;;;;;;;;;5079750;28;20495;-88
2022/10/07 07:39:54;;;;;;;0.00;0.00;;;;;;;;;;5074832;28;20403;-85
2022/10/07 07:42:20;;;;;;;0.00;0.00;;;;;;;;;;5057921;28;20051;-86
2022/10/07 07:44:46;;;;;;;0.00;0.00;;;;;;;;;;5074431;28;20043;-84
2022/10/07 07:47:15;;;;;;;0.00;0.00;;;;;;;;;;5075686;28;20143;-86
2022/10/07 07:49:41;;;;;;;0.00;0.00;;;;;;;;;;5057763;28;20041;-85
2022/10/07 07:52:07;;;;;;;0.00;0.00;;;;;;;;;;5074771;28;20044;-85
2022/10/07 07:54:36;;;;;;;0.00;0.00;;;;;;;;;;5057482;28;20072;-85
2022/10/07 07:57:02;;;;;;;0.00;0.00;;;;;;;;;;5057543;28;20040;-86
2022/10/07 07:59:30;;;;;;;0.00;0.00;;;;;;;;;;5074419;28;20042;-84
2022/10/07 08:01:56;;;;;;;0.00;0.00;;;;;;;;;;5057637;28;20123;-84
2022/10/07 08:04:22;;;;;;;0.00;0.00;;;;;;;;;;5074219;28;20091;-85
2022/10/07 08:06:49;;;;;;;0.00;0.00;;;;;;;;;;5074316;28;20040;-87
2022/10/07 08:09:15;;;;;;;0.00;0.00;;;;;;;;;;5074495;28;20052;-86
2022/10/07 08:11:44;;;;;;;0.00;0.00;;;;;;;;;;5075292;28;20044;-87
2022/10/07 08:14:10;;;;;;;0.00;0.00;;;;;;;;;;5059021;28;20140;-86
2022/10/07 08:16:36;;;;;;;0.00;0.00;;;;;;;;;;5075930;28;20040;-87
2022/10/07 08:19:03;;;;;;;0.00;0.00;;;;;;;;;;5074789;28;20067;-86
2022/10/07 08:21:31;;;;;;;0.00;0.00;;;;;;;;;;5074770;28;20127;-86
2022/10/07 08:23:58;;;;;;;0.00;0.00;;;;;;;;;;5057440;28;20094;-84
2022/10/07 08:26:28;;;;;;;0.00;0.00;;;;;;;;;;5075471;28;20124;-89
2022/10/07 08:28:54;;;;;;;0.00;0.00;;;;;;;;;;5073792;28;20040;-90
2022/10/07 08:31:20;;;;;;;0.00;0.00;;;;;;;;;;5074767;28;20476;-88
2022/10/07 08:33:48;;;;;;;0.00;0.00;;;;;;;;;;5073159;28;20076;-88
2022/10/07 08:36:16;;;;;;;0.00;0.00;;;;;;;;;;5074030;28;20055;-87
2022/10/07 08:38:42;;;;;;;0.00;0.00;;;;;;;;;;5073830;28;20427;-87
2022/10/07 08:41:08;;;;;;;0.00;0.00;;;;;;;;;;5073185;28;20032;-87
2022/10/07 08:43:36;;;;;;;0.00;0.00;;;;;;;;;;5073633;28;20044;-87
2022/10/07 08:46:03;;;;;;;0.00;0.00;;;;;;;;;;5073762;28;20085;-88
2022/10/07 08:48:37;;;;;;;0.00;0.00;;;;;;;;;;5057907;28;20036;-89
2022/10/07 08:51:18;;;;;;;0.00;0.00;;;;;;;;;;5058901;28;20451;-89
2022/10/07 08:53:48;;;;;;;0.00;0.00;;;;;;;;;;5057386;28;20033;-88
2022/10/07 08:56:15;;;;;;;0.00;0.00;;;;;;;;;;5074368;28;20297;-88
2022/10/07 08:59:01;;;;;;;0.00;0.00;;;;;;;;;;5074198;28;20491;-87
2022/10/07 09:01:34;;;;;;;0.00;0.00;;;;;;;;;;5074238;28;20044;-90
2022/10/07 09:04:03;;;;;;;0.00;0.00;;;;;;;;;;5073997;28;20037;-89
2022/10/07 09:06:33;;;;;;;0.00;0.00;;;;;;;;;;5057562;28;20044;-88
2022/10/07 09:09:05;;;;;;;0.00;0.00;;;;;;;;;;5073780;28;20567;-89
2022/10/07 09:11:32;;;;;;;0.00;0.00;;;;;;;;;;5074121;28;20040;-88
2022/10/07 09:14:13;;;;;;;0.00;0.00;;;;;;;;;;5073575;28;20048;-88
2022/10/07 09:16:42;;;;;;;0.00;0.00;;;;;;;;;;5073729;28;20126;-88
2022/10/07 09:19:13;;;;;;;0.00;0.00;;;;;;;;;;5056156;28;20121;-89
2022/10/07 09:21:42;;;;;;;0.00;0.00;;;;;;;;;;5072977;28;20045;-89
2022/10/07 09:24:11;;;;;;;0.00;0.00;;;;;;;;;;5072614;28;20545;-88
2022/10/07 09:26:39;;;;;;;0.00;0.00;;;;;;;;;;5072876;28;20044;-89
2022/10/07 09:29:05;;;;;;;0.00;0.00;;;;;;;;;;5072606;28;20083;-89
2022/10/07 09:31:32;;;;;;;0.00;0.00;;;;;;;;;;5072785;28;20084;-90
2022/10/07 09:34:01;;;;;;;0.00;0.00;;;;;;;;;;5056098;28;20542;-88
2022/10/07 09:36:27;;;;;;;0.00;0.00;;;;;;;;;;5056016;28;20074;-88
2022/10/07 09:38:54;;;;;;;0.00;0.00;;;;;;;;;;5072540;28;20048;-89
2022/10/07 09:41:26;;;;;;;0.00;0.00;;;;;;;;;;5072707;28;20097;-88
2022/10/07 09:43:55;;;;;;;0.00;0.00;;;;;;;;;;5055701;28;20041;-90
2022/10/07 09:46:39;;;;;;;0.00;0.00;;;;;;;;;;5072396;28;20396;-89
2022/10/07 09:49:06;;;;;;;0.00;0.00;;;;;;;;;;5072244;28;20063;-87
2022/10/07 09:51:35;;;;;;;0.00;0.00;;;;;;;;;;5073167;28;20399;-88
2022/10/07 09:54:05;;;;;;;0.00;0.00;;;;;;;;;;5073104;28;20070;-88
2022/10/07 09:56:36;;;;;;;0.00;0.00;;;;;;;;;;5055632;28;20181;-89
2022/10/07 09:59:21;;;;;;;0.00;0.00;;;;;;;;;;5073245;28;20036;-87
2022/10/07 10:01:57;;;;;;;0.00;0.00;;;;;;;;;;5072948;28;20400;-88
2022/10/07 10:04:32;;;;;;;0.00;0.00;;;;;;;;;;5072712;28;20047;-89
2022/10/07 10:07:06;;;;;;;0.00;0.00;;;;;;;;;;5056642;28;20549;-88
2022/10/07 10:09:33;;;;;;;0.00;0.00;;;;;;;;;;5072679;28;20051;-89
2022/10/07 10:12:01;;;;;;;0.00;0.00;;;;;;;;;;5056151;28;20476;-89
2022/10/07 10:14:57;;;;;;;0.00;0.00;;;;;;;;;;5072167;28;20139;-88
2022/10/07 10:17:39;;;;;;;0.00;0.00;;;;;;;;;;5068494;28;20426;-89
2022/10/07 10:20:25;;;;;;;0.00;0.00;;;;;;;;;;5056152;28;20048;-88
2022/10/07 10:22:56;;;;;;;0.00;0.00;;;;;;;;;;5072722;28;20040;-89
2022/10/07 10:28:25;;;;;;;0.00;0.00;;;;;;;;;;5072643;28;20052;-89
2022/10/07 10:30:55;;;;;;;0.00;0.00;;;;;;;;;;5056081;28;20098;-87
2022/10/07 10:33:29;;;;;;;0.00;0.00;;;;;;;;;;5073836;28;20047;-91
2022/10/07 10:36:09;;;;;;;0.00;0.00;;;;;;;;;;5058215;28;20068;-91
2022/10/07 10:38:45;;;;;;;0.00;0.00;;;;;;;;;;5072727;28;20051;-88
2022/10/07 10:41:14;;;;;;;0.00;0.00;;;;;;;;;;5072342;28;20449;-90
2022/10/07 10:43:54;;;;;;;0.00;0.00;;;;;;;;;;5072619;28;20203;-89
2022/10/07 10:46:40;;;;;;;0.00;0.00;;;;;;;;;;5072492;28;20180;-90
2022/10/07 10:49:15;;;;;;;0.00;0.00;;;;;;;;;;5072571;28;20047;-89
2022/10/07 10:52:01;;;;;;;0.00;0.00;;;;;;;;;;5071773;28;20048;-88
2022/10/07 10:54:46;;;;;;;0.00;0.00;;;;;;;;;;5055957;28;20084;-89
2022/10/07 10:57:18;;;;;;;0.00;0.00;;;;;;;;;;5072411;28;20076;-89
2022/10/07 10:59:55;;;;;;;0.00;0.00;;;;;;;;;;5072528;28;20309;-90
2022/10/07 11:02:21;;;;;;;0.00;0.00;;;;;;;;;;5072634;28;20040;-88
2022/10/07 11:04:56;;;;;;;0.00;0.00;;;;;;;;;;5055332;28;20128;-90
2022/10/07 11:07:35;;;;;;;0.00;0.00;;;;;;;;;;5072236;28;20044;-90
2022/10/07 11:10:05;;;;;;;0.00;0.00;;;;;;;;;;5072622;28;20044;-89
2022/10/07 11:12:35;;;;;;;0.00;0.00;;;;;;;;;;5072372;28;20369;-90
2022/10/07 11:15:22;;;;;;;0.00;0.00;;;;;;;;;;5072413;28;20045;-91
2022/10/07 11:17:49;;;;;;;0.00;0.00;;;;;;;;;;5072017;28;20063;-89
2022/10/07 11:20:24;;;;;;;0.00;0.00;;;;;;;;;;5071746;28;20101;-89
2022/10/07 11:23:10;;;;;;;0.00;0.00;;;;;;;;;;5072316;28;20098;-90
2022/10/07 11:25:41;;;;;;;0.00;0.00;;;;;;;;;;5068299;28;20044;-90
2022/10/07 11:28:20;;;;;;;0.00;0.00;;;;;;;;;;5072594;28;20510;-89
2022/10/07 11:31:01;;;;;;;0.00;0.00;;;;;;;;;;5072051;28;20049;-90
2022/10/07 11:33:37;;;;;;;0.00;0.00;;;;;;;;;;5071946;28;20500;-90
2022/10/07 11:36:12;;;;;;;0.00;0.00;;;;;;;;;;5055981;28;20127;-91
2022/10/07 11:38:38;;;;;;;;;;;;;;;;;;5072580;28;20043;-91
2022/10/07 11:41:04;;;;;;;;;;;;;;;;;;5072281;28;19916;-92
2022/10/07 11:43:56;;;;;;;0.00;0.00;;;;;;;;;;5072963;28;20008;-86
2022/10/07 11:46:33;;;;;;;0.00;0.00;;;;;;;;;;5054012;28;20044;-88
2022/10/07 11:48:59;;;;;;;0.00;0.00;;;;;;;;;;5071857;28;20040;-88
2022/10/07 11:51:34;;;;;;;0.00;0.00;;;;;;;;;;5071428;28;20048;-88
2022/10/07 11:54:01;;;;;;;0.00;0.00;;;;;;;;;;5071845;28;20487;-88
2022/10/07 11:56:30;;;;;;;0.00;0.00;;;;;;;;;;5054696;28;20040;-90
2022/10/07 11:59:01;;;;;;;0.00;0.00;;;;;;;;;;5054918;28;20383;-85
2022/10/07 12:01:27;;;;;;;0.00;0.00;;;;;;;;;;5054211;28;20037;-89
2022/10/07 12:04:14;;;;;;;0.00;0.00;;;;;;;;;;5073826;28;20119;-88
2022/10/07 12:07:02;;;;;;;0.00;0.00;;;;;;;;;;5075015;28;20545;-91
2022/10/07 12:09:47;;;;;;;0.00;0.00;;;;;;;;;;5057686;28;20040;-86
2022/10/07 12:12:13;;;;;;;0.00;0.00;;;;;;;;;;5074543;28;20040;-89
2022/10/07 12:14:41;;;;;;;0.00;0.00;;;;;;;;;;5057459;28;20099;-87
2022/10/07 12:17:17;;;;;;;0.00;0.00;;;;;;;;;;5057746;28;20055;-90
2022/10/07 12:19:43;;;;;;;0.00;0.00;;;;;;;;;;5058534;28;20033;-89
2022/10/07 12:22:09;;;;;;;0.00;0.00;;;;;;;;;;5058006;28;20090;-88
2022/10/07 12:24:36;;;;;;;0.00;0.00;;;;;;;;;;5057961;28;20044;-88
2022/10/07 12:27:28;;;;;;;0.00;0.00;;;;;;;;;;5057729;28;20093;-90
2022/10/07 12:29:57;;;;;;;0.00;0.00;;;;;;;;;;5073869;28;20385;-89
2022/10/07 12:32:42;;;;;;;0.00;0.00;;;;;;;;;;5057630;28;20044;-89
2022/10/07 12:35:27;;;;;;;0.00;0.00;;;;;;;;;;5057819;28;20036;-88
2022/10/07 12:38:01;;;;;;;0.00;0.00;;;;;;;;;;5073791;28;20052;-87
2022/10/07 12:40:29;;;;;;;0.00;0.00;;;;;;;;;;5057147;28;20068;-87
2022/10/07 12:42:58;;;;;;;0.00;0.00;;;;;;;;;;5057158;28;20047;-88
2022/10/07 12:45:25;;;;;;;0.00;0.00;;;;;;;;;;5074678;28;20044;-86
2022/10/07 12:47:53;;;;;;;0.00;0.00;;;;;;;;;;5076644;28;20040;-86
2022/10/07 12:50:20;;;;;;;0.00;0.00;;;;;;;;;;5076006;28;20049;-87
2022/10/07 12:52:53;;;;;;;0.00;0.00;;;;;;;;;;5074132;28;20098;-88
2022/10/07 12:55:22;;;;;;;0.00;0.00;;;;;;;;;;5058306;28;20040;-87
2022/10/07 12:57:51;;;;;;;0.00;0.00;;;;;;;;;;5076895;28;20041;-88
2022/10/07 13:00:17;;;;;;;0.00;0.00;;;;;;;;;;5074113;28;20093;-86
2022/10/07 13:03:02;;;;;;;0.00;0.00;;;;;;;;;;5073440;28;20036;-87
2022/10/07 13:05:49;;;;;;;0.00;0.00;;;;;;;;;;5057184;28;20044;-88
2022/10/07 13:08:34;;;;;;;0.00;0.00;;;;;;;;;;5056856;28;20042;-88
2022/10/07 13:11:06;;;;;;;0.00;0.00;;;;;;;;;;5072543;28;20040;-88
2022/10/07 13:13:51;;;;;;;0.00;0.00;;;;;;;;;;5072669;28;20137;-88
2022/10/07 13:16:30;;;;;;;0.00;0.00;;;;;;;;;;5073131;28;20055;-87
2022/10/07 13:19:04;;;;;;;0.00;0.00;;;;;;;;;;5056974;28;20040;-86
2022/10/07 13:21:35;;;;;;;0.00;0.00;;;;;;;;;;5073087;28;20055;-92
2022/10/07 13:24:01;;;;;;;0.00;0.00;;;;;;;;;;5057180;28;20127;-89
2022/10/07 13:26:27;;;;;;;0.00;0.00;;;;;;;;;;5073272;28;20407;-89
2022/10/07 13:28:54;;;;;;;0.00;0.00;;;;;;;;;;5056872;28;20514;-87
2022/10/07 13:31:28;;;;;;;0.00;0.00;;;;;;;;;;5073528;28;20182;-89
2022/10/07 13:33:54;;;;;;;0.00;0.00;;;;;;;;;;5063917;28;20483;-89
2022/10/07 13:36:27;;;;;;;0.00;0.00;;;;;;;;;;5075586;28;20040;-89
2022/10/07 13:39:09;;;;;;;0.00;0.00;;;;;;;;;;5076781;28;20104;-87
2022/10/07 13:41:36;;;;;;;0.00;0.00;;;;;;;;;;5093688;28;20043;-89
2022/10/07 13:44:03;;;;;;;0.00;0.00;;;;;;;;;;5093493;28;20028;-89
2022/10/07 13:46:30;;;;;;;0.00;0.00;;;;;;;;;;5093106;28;20399;-88
2022/10/07 13:48:57;;;;;;;0.00;0.00;;;;;;;;;;5092996;28;20082;-88
2022/10/07 13:51:27;;;;;;;0.00;0.00;;;;;;;;;;5075935;28;20065;-89
2022/10/07 13:53:56;;;;;;;0.00;0.00;;;;;;;;;;5076365;28;20105;-88
2022/10/07 13:56:22;;;;;;;0.00;0.00;;;;;;;;;;5091801;28;20044;-85
2022/10/07 13:58:48;;;;;;;0.00;0.00;;;;;;;;;;5092798;28;20039;-89
2022/10/07 14:01:14;;;;;;;0.00;0.00;;;;;;;;;;5093038;28;20044;-82
2022/10/07 14:04:00;;;;;;;0.00;0.00;;;;;;;;;;5092083;28;20040;-81
2022/10/07 14:06:36;;;;;;;0.00;0.00;;;;;;;;;;5075654;28;20557;-82
2022/10/07 14:09:02;;;;;;;0.00;0.00;;;;;;;;;;5092193;28;20086;-82
2022/10/07 14:11:29;;;;;;;0.00;0.00;;;;;;;;;;5092214;28;20050;-84
2022/10/07 14:13:58;;;;;;;0.00;0.00;;;;;;;;;;5091843;28;20579;-86
2022/10/07 14:16:24;;;;;;;0.00;0.00;;;;;;;;;;5075408;28;20127;-87
2022/10/07 14:18:51;;;;;;;0.00;0.00;;;;;;;;;;5092123;28;20036;-88
2022/10/07 14:21:17;;;;;;;0.00;0.00;;;;;;;;;;5075594;28;20453;-85
2022/10/07 14:23:45;;;;;;;0.00;0.00;;;;;;;;;;5091659;28;20031;-85
2022/10/07 14:26:13;;;;;;;0.00;0.00;;;;;;;;;;5091988;28;20040;-83
2022/10/07 14:28:40;;;;;;;0.05;0.05;;;;;;;;;;5075228;28;20364;-85
2022/10/07 14:37:10;;;;;;;0.00;0.00;;;;;;;;;;5091783;28;20113;-87
2022/10/07 14:39:36;;;;;;;0.00;0.00;;;;;;;;;;5092038;28;20042;-89
2022/10/07 14:42:02;;;;;;;0.00;0.00;;;;;;;;;;5091820;28;20043;-84
2022/10/07 14:44:30;;;;;;;1.55;0.10;;;;;;;;;;5092258;28;20040;-89
2022/10/07 14:47:06;;;;;;;0.00;0.00;;;;;;;;;;5092263;28;20043;-89
2022/10/07 14:49:33;;;;;;;0.00;0.00;;;;;;;;;;5076123;28;20146;-89
2022/10/07 14:52:00;;;;;;;0.00;0.00;;;;;;;;;;5092601;28;20071;-90
2022/10/07 14:54:26;;;;;;;0.00;0.00;;;;;;;;;;5093014;28;20047;-93
2022/10/07 14:56:52;;;;;;;0.00;0.00;;;;;;;;;;5078528;28;20117;-96
2022/10/07 14:59:18;;;;;;;0.00;0.00;;;;;;;;;;5076444;28;20032;-91
2022/10/07 15:01:44;;;;;;;0.00;0.00;;;;;;;;;;5077049;28;20127;-91
2022/10/07 15:06:46;;;;;;;0.00;0.00;;;;;;;;;;5544637;22;20060;-95
2022/10/07 15:09:12;;;;;;;0.00;0.00;;;;;;;;;;5073633;28;20051;-94
2022/10/07 15:11:41;;;;;;;0.00;0.00;;;;;;;;;;5059269;28;20050;-93
2022/10/07 15:14:09;;;;;;;0.00;0.00;;;;;;;;;;5074648;28;20086;-93
2022/10/07 15:16:36;;;;;;;0.00;0.00;;;;;;;;;;5057551;28;20086;-91